Item Display Status Serial CT Sensor

Mooring Depth: 1 m

 

Deployed Sensor

  • Serial Number: 7744
  • NDBC Property Number: 33336
  • Start Date: 5/15/2012 (00:21:00 Z)
  • End Date: 10/16/2013 (19:17:12 Z)
Water Temperature [°C]     6 entries per hour
Showing data from 8/4/2013 (13:30:00 Z) to 8/3/2013 (00:00:01 Z)
Previous Next [ Day | 3-Days | 7-Days ]
First Last
Prev [ Day | 3-Days | 7-Days ] Next
First Last

Start Time:     :
End Time:     :     
Time (in GMT) :00 :50 :40 :30 :20 :10
Previous Next [ Day | 3-Days | 7-Days ]
First Last
Prev [ Day | 3-Days | 7-Days ] Next
First Last


123 => good data
MM => data is determined as missing
-- => data not received/configured
Back to Top Back to Top
8/4/2013 14:00 to 13:10 -- -- -- 28.025 -- --
8/4/2013 13:00 to 12:10 28.157 28.169 28.165 28.176 28.199 --
8/4/2013 12:00 to 11:10 28.178 28.187 28.189 28.171 28.169 --
8/4/2013 11:00 to 10:10 28.188 28.197 28.194 28.222 28.241 28.179
8/4/2013 10:00 to 9:10 28.248 28.261 28.272 28.273 28.294 28.293
8/4/2013 09:00 to 8:10 28.303 28.309 28.301 28.309 28.312 28.300
8/4/2013 08:00 to 7:10 28.308 28.308 28.308 28.316 28.309 28.326
8/4/2013 07:00 to 6:10 28.337 28.339 28.327 28.337 28.344 28.329
8/4/2013 06:00 to 5:10 28.335 28.339 28.351 28.348 28.376 28.334
8/4/2013 05:00 to 4:10 28.337 28.315 28.317 28.341 28.344 28.377
8/4/2013 04:00 to 3:10 28.365 28.331 28.048 28.037 28.043 28.026
8/4/2013 03:00 to 2:10 28.042 28.060 28.072 28.074 28.093 28.229
8/4/2013 02:00 to 1:10 28.229 28.291 28.376 28.366 28.381 28.358
8/4/2013 01:00 to 0:10 28.323 28.197 28.282 28.322 28.342 28.075
8/4/2013 00:00 to 23:10 28.072 28.085 28.082 28.100 28.117 28.080
8/3/2013 23:00 to 22:10 28.109 28.282 28.299 28.312 28.295 28.287
8/3/2013 22:00 to 21:10 28.296 28.274 28.297 28.268 28.280 28.274
8/3/2013 21:00 to 20:10 28.275 28.045 28.028 28.026 28.033 28.030
8/3/2013 20:00 to 19:10 28.028 28.024 28.029 28.026 28.030 28.028
8/3/2013 19:00 to 18:10 28.030 28.017 28.018 28.022 28.018 28.029
8/3/2013 18:00 to 17:10 28.022 28.025 28.025 28.032 28.023 28.047
8/3/2013 17:00 to 16:10 28.040 28.030 28.044 28.045 28.038 28.037
8/3/2013 16:00 to 15:10 28.041 28.038 28.032 28.035 28.033 28.033
8/3/2013 15:00 to 14:10 28.041 28.042 28.033 28.039 28.043 28.052
8/3/2013 14:00 to 13:10 28.050 28.053 28.082 28.081 28.082 28.084
8/3/2013 13:00 to 12:10 28.088 28.086 28.094 28.098 28.094 28.098
8/3/2013 12:00 to 11:10 28.088 28.101 28.102 28.099 28.101 28.096
8/3/2013 11:00 to 10:10 28.089 28.080 28.086 28.092 28.097 28.086
8/3/2013 10:00 to 9:10 28.087 28.084 28.088 28.096 28.098 28.096
8/3/2013 09:00 to 8:10 28.093 28.100 28.102 28.097 28.105 28.116
8/3/2013 08:00 to 7:10 28.107 28.102 28.110 28.083 28.088 28.104
8/3/2013 07:00 to 6:10 28.108 28.083 28.084 28.078 28.065 28.074
8/3/2013 06:00 to 5:10 28.086 28.085 28.084 28.094 28.096 28.108
8/3/2013 05:00 to 4:10 28.123 28.131 28.139 28.144 28.156 28.158
8/3/2013 04:00 to 3:10 28.159 28.159 28.167 28.171 28.180 28.183
8/3/2013 03:00 to 2:10 28.174 28.193 28.180 28.165 28.168 28.166
8/3/2013 02:00 to 1:10 28.173 28.168 28.147 28.144 28.145 28.163
8/3/2013 01:00 to 0:10 28.149 28.165 28.157 28.152 28.147 28.148

 

 

 

Conductivity [S/m]     6 entries per hour
Showing data from 8/4/2013 (13:30:00 Z) to 8/3/2013 (00:00:01 Z)
Previous Next [ Day | 3-Days | 7-Days ]
First Last
Prev [ Day | 3-Days | 7-Days ] Next
First Last

Start Time:     :
End Time:     :     
Time (in GMT) :00 :50 :40 :30 :20 :10
Previous Next [ Day | 3-Days | 7-Days ]
First Last
Prev [ Day | 3-Days | 7-Days ] Next
First Last


123 => good data
MM => data is determined as missing
-- => data not received/configured
Back to Top Back to Top
8/4/2013 14:00 to 13:10 -- -- -- 5.70053 -- --
8/4/2013 13:00 to 12:10 5.71903 5.71978 5.71966 5.72097 5.72422 --
8/4/2013 12:00 to 11:10 5.72133 5.72236 5.72275 5.71988 5.71945 --
8/4/2013 11:00 to 10:10 5.72277 5.72364 5.72320 5.72704 5.73023 5.72079
8/4/2013 10:00 to 9:10 5.73089 5.73276 5.73384 5.73412 5.73686 5.73708
8/4/2013 09:00 to 8:10 5.73832 5.73886 5.73765 5.73838 5.73909 5.73754
8/4/2013 08:00 to 7:10 5.73870 5.73827 5.73832 5.73926 5.73806 5.74030
8/4/2013 07:00 to 6:10 5.74115 5.74117 5.74027 5.74116 5.74157 5.74015
8/4/2013 06:00 to 5:10 5.74049 5.74139 5.74169 5.74195 5.74537 5.73994
8/4/2013 05:00 to 4:10 5.74048 5.73698 5.73745 5.73987 5.73951 5.74492
8/4/2013 04:00 to 3:10 5.74294 5.73910 5.69417 5.69290 5.69368 5.69146
8/4/2013 03:00 to 2:10 5.69301 5.69534 5.69646 5.69662 5.69909 5.72220
8/4/2013 02:00 to 1:10 5.72338 5.73199 5.74400 5.74316 5.74489 5.74245
8/4/2013 01:00 to 0:10 5.73758 5.71923 5.73130 5.73673 5.74069 5.69766
8/4/2013 00:00 to 23:10 5.69758 5.69936 5.69902 5.70147 5.70333 5.69912
8/3/2013 23:00 to 22:10 5.70287 5.73130 5.73466 5.73685 5.73452 5.73392
8/3/2013 22:00 to 21:10 5.73537 5.73272 5.73557 5.73181 5.73397 5.73304
8/3/2013 21:00 to 20:10 5.73348 5.69400 5.69162 5.69170 5.69221 5.69158
8/3/2013 20:00 to 19:10 5.69106 5.69014 5.69080 5.69062 5.69082 5.69043
8/3/2013 19:00 to 18:10 5.69024 5.68879 5.68878 5.68908 5.68915 5.69070
8/3/2013 18:00 to 17:10 5.68999 5.69086 5.69114 5.69251 5.69170 5.69340
8/3/2013 17:00 to 16:10 5.69271 5.69099 5.69215 5.69213 5.69074 5.69065
8/3/2013 16:00 to 15:10 5.69133 5.69120 5.69027 5.69062 5.69012 5.69077
8/3/2013 15:00 to 14:10 5.69179 5.69263 5.69204 5.69309 5.69485 5.69225
8/3/2013 14:00 to 13:10 5.69205 5.69230 5.69538 5.69498 5.69536 5.69482
8/3/2013 13:00 to 12:10 5.69574 5.69550 5.69634 5.69689 5.69651 5.69705
8/3/2013 12:00 to 11:10 5.69609 5.69659 5.69665 5.69596 5.69560 5.69537
8/3/2013 11:00 to 10:10 5.69498 5.69438 5.69497 5.69559 5.69632 5.69581
8/3/2013 10:00 to 9:10 5.69552 5.69498 5.69597 5.69664 5.69772 5.69741
8/3/2013 09:00 to 8:10 5.69742 5.69836 5.69836 5.69819 5.69948 5.70125
8/3/2013 08:00 to 7:10 5.70024 5.69973 5.70103 5.69723 5.69772 5.70042
8/3/2013 07:00 to 6:10 5.70155 5.69770 5.69760 5.69698 5.69545 5.69585
8/3/2013 06:00 to 5:10 5.69726 5.69728 5.69776 5.69837 5.69871 5.70043
8/3/2013 05:00 to 4:10 5.70177 5.70271 5.70379 5.70448 5.70602 5.70672
8/3/2013 04:00 to 3:10 5.70708 5.70737 5.70854 5.70916 5.71010 5.71057
8/3/2013 03:00 to 2:10 5.70951 5.71182 5.71062 5.70890 5.70948 5.70926
8/3/2013 02:00 to 1:10 5.71004 5.70965 5.70730 5.70711 5.70713 5.70926
8/3/2013 01:00 to 0:10 5.70819 5.70978 5.70920 5.70849 5.70833 5.70905

 

 

 

Salinity [psu]     6 entries per hour
Showing data from 8/4/2013 (13:30:00 Z) to 8/3/2013 (00:00:01 Z)
Previous Next [ Day | 3-Days | 7-Days ]
First Last
Prev [ Day | 3-Days | 7-Days ] Next
First Last

Start Time:     :
End Time:     :     
Time (in GMT) :00 :50 :40 :30 :20 :10
Previous Next [ Day | 3-Days | 7-Days ]
First Last
Prev [ Day | 3-Days | 7-Days ] Next
First Last


123 => good data
MM => data is determined as missing
-- => data not received/configured
Back to Top Back to Top
8/4/2013 14:00 to 13:10 -- -- -- 35.53 -- --
8/4/2013 13:00 to 12:10 35.56 35.55 35.56 35.56 35.56 --
8/4/2013 12:00 to 11:10 35.56 35.56 35.56 35.55 35.55 --
8/4/2013 11:00 to 10:10 35.56 35.56 35.56 35.56 35.57 35.55
8/4/2013 10:00 to 9:10 35.57 35.58 35.57 35.58 35.58 35.58
8/4/2013 09:00 to 8:10 35.58 35.58 35.58 35.58 35.58 35.58
8/4/2013 08:00 to 7:10 35.58 35.58 35.58 35.58 35.58 35.58
8/4/2013 07:00 to 6:10 35.58 35.57 35.58 35.58 35.57 35.58
8/4/2013 06:00 to 5:10 35.57 35.58 35.57 35.57 35.58 35.57
8/4/2013 05:00 to 4:10 35.57 35.56 35.57 35.56 35.56 35.57
8/4/2013 04:00 to 3:10 35.57 35.57 35.46 35.46 35.47 35.46
8/4/2013 03:00 to 2:10 35.46 35.46 35.46 35.46 35.47 35.53
8/4/2013 02:00 to 1:10 35.53 35.55 35.57 35.57 35.57 35.57
8/4/2013 01:00 to 0:10 35.56 35.53 35.55 35.56 35.57 35.47
8/4/2013 00:00 to 23:10 35.47 35.47 35.47 35.48 35.48 35.48
8/3/2013 23:00 to 22:10 35.48 35.55 35.56 35.56 35.56 35.56
8/3/2013 22:00 to 21:10 35.57 35.56 35.57 35.56 35.57 35.57
8/3/2013 21:00 to 20:10 35.57 35.47 35.46 35.46 35.46 35.46
8/3/2013 20:00 to 19:10 35.46 35.45 35.46 35.46 35.45 35.45
8/3/2013 19:00 to 18:10 35.45 35.45 35.45 35.45 35.45 35.45
8/3/2013 18:00 to 17:10 35.46 35.46 35.46 35.46 35.47 35.46
8/3/2013 17:00 to 16:10 35.46 35.46 35.45 35.45 35.45 35.45
8/3/2013 16:00 to 15:10 35.45 35.45 35.45 35.45 35.45 35.45
8/3/2013 15:00 to 14:10 35.45 35.46 35.46 35.46 35.47 35.45
8/3/2013 14:00 to 13:10 35.45 35.45 35.45 35.45 35.45 35.44
8/3/2013 13:00 to 12:10 35.45 35.45 35.45 35.45 35.45 35.45
8/3/2013 12:00 to 11:10 35.45 35.44 35.44 35.44 35.43 35.44
8/3/2013 11:00 to 10:10 35.44 35.44 35.44 35.44 35.44 35.45
8/3/2013 10:00 to 9:10 35.44 35.44 35.45 35.45 35.45 35.45
8/3/2013 09:00 to 8:10 35.45 35.46 35.45 35.46 35.46 35.46
8/3/2013 08:00 to 7:10 35.46 35.46 35.47 35.46 35.46 35.47
8/3/2013 07:00 to 6:10 35.47 35.46 35.46 35.46 35.46 35.46
8/3/2013 06:00 to 5:10 35.46 35.46 35.46 35.46 35.46 35.46
8/3/2013 05:00 to 4:10 35.46 35.46 35.46 35.46 35.47 35.47
8/3/2013 04:00 to 3:10 35.47 35.47 35.48 35.48 35.48 35.48
8/3/2013 03:00 to 2:10 35.48 35.48 35.48 35.48 35.48 35.48
8/3/2013 02:00 to 1:10 35.48 35.48 35.48 35.48 35.48 35.48
8/3/2013 01:00 to 0:10 35.49 35.49 35.49 35.49 35.49 35.49